| time (UTC) | temp F | wind direction | speed MPH | gust MPH | rain 1hr in | rain 24hr in | rain mn in | humidity % | barometer mb |
| 20260507003049 | 40 | 101 | 0.0 | 0.0 | 0.00 | 0.16 | 0.01 | 1 | 1013.0 |
| 20260507001550 | 40 | 101 | 0.0 | 0.0 | 0.01 | 0.16 | 0.01 | 1 | 1013.0 |
| 20260507000039 | 40 | 96 | 0.0 | 1.0 | 0.01 | 0.16 | 0.01 | 1 | 1013.1 |
| 20260506234535 | 39 | 96 | 0.0 | 0.0 | 0.01 | 0.16 | 0.01 | 1 | 1013.2 |
| 20260506233030 | 39 | 96 | 0.0 | 0.0 | 0.01 | 0.16 | 0.01 | 1 | 1013.2 |
| 20260506231526 | 39 | 96 | 0.0 | 0.0 | 0.00 | 0.15 | 0.00 | 1 | 1013.2 |
| 20260506230022 | 39 | 96 | 0.0 | 0.0 | 0.00 | 0.15 | 0.00 | 1 | 1013.2 |
| 20260506224518 | 40 | 96 | 0.0 | 2.0 | 0.00 | 0.15 | 0.00 | 1 | 1013.2 |
| 20260506223014 | 40 | 96 | 0.0 | 0.0 | 0.00 | 0.15 | 0.00 | 1 | 1013.2 |
| 20260506221510 | 40 | 96 | 0.0 | 0.0 | 0.00 | 0.15 | 0.00 | 1 | 1013.2 |
| 20260506220013 | 41 | 96 | 0.0 | 0.0 | 0.00 | 0.15 | 0.00 | 1 | 1013.2 |
| 20260506214605 | 41 | 96 | 0.0 | 0.0 | 0.00 | 0.15 | 0.15 | 1 | 1013.1 |
| 20260506213056 | 41 | 96 | 0.0 | 0.0 | 0.00 | 0.15 | 0.15 | 1 | 1013.1 |
| 20260506211553 | 41 | 96 | 0.0 | 0.0 | 0.00 | 0.15 | 0.15 | 1 | 1013.2 |
| 20260506210047 | 42 | 96 | 0.0 | 0.0 | 0.00 | 0.15 | 0.15 | 1 | 1013.1 |
| 20260506204549 | 42 | 96 | 0.0 | 0.0 | 0.00 | 0.16 | 0.15 | 1 | 1012.8 |
| 20260506203039 | 42 | 96 | 0.0 | 0.0 | 0.00 | 0.16 | 0.15 | 1 | 1012.7 |
| 20260506201534 | 42 | 96 | 0.0 | 0.0 | 0.00 | 0.16 | 0.15 | 1 | 1012.4 |
| 20260506200030 | 42 | 96 | 0.0 | 0.0 | 0.00 | 0.16 | 0.15 | 1 | 1012.3 |
| 20260506194525 | 42 | 96 | 0.0 | 0.0 | 0.00 | 0.18 | 0.15 | 1 | 1012.0 |
| 20260506193020 | 43 | 36 | 0.0 | 0.0 | 0.00 | 0.18 | 0.15 | 1 | 1011.9 |
| 20260506191516 | 44 | 36 | 0.0 | 0.0 | 0.00 | 0.18 | 0.15 | 1 | 1011.8 |
| 20260506190021 | 44 | 10 | 0.0 | 0.0 | 0.00 | 0.18 | 0.15 | 1 | 1011.9 |
| 20260506184508 | 45 | 10 | 0.0 | 0.0 | 0.00 | 0.19 | 0.15 | 1 | 1011.5 |
| 20260506183006 | 46 | 10 | 0.0 | 0.0 | 0.00 | 0.19 | 0.15 | 1 | 1011.4 |
| 20260506181602 | 46 | 10 | 0.0 | 0.0 | 0.00 | 0.19 | 0.15 | 1 | 1011.3 |
| 20260506180113 | 47 | 10 | 0.0 | 0.0 | 0.00 | 0.19 | 0.15 | 1 | 1011.2 |
| 20260506174551 | 47 | 9 | 0.0 | 0.0 | 0.00 | 0.19 | 0.15 | 1 | 1010.9 |
| 20260506173101 | 47 | 9 | 0.0 | 0.0 | 0.00 | 0.19 | 0.15 | 1 | 1010.7 |
| 20260506171544 | 47 | 9 | 0.0 | 0.0 | 0.00 | 0.19 | 0.15 | 1 | 1010.5 |
| 20260506170036 | 48 | 9 | 0.0 | 0.0 | 0.00 | 0.19 | 0.15 | 1 | 1010.3 |
| 20260506164532 | 48 | 9 | 0.0 | 0.0 | 0.00 | 0.19 | 0.15 | 1 | 1010.1 |
| 20260506163028 | 48 | 9 | 0.0 | 0.0 | 0.00 | 0.19 | 0.15 | 1 | 1010.2 |
| 20260506161524 | 49 | 9 | 0.0 | 0.0 | 0.00 | 0.19 | 0.15 | 1 | 1010.2 |
| 20260506160020 | 49 | 9 | 0.0 | 2.0 | 0.00 | 0.19 | 0.15 | 1 | 1010.2 |
| 20260506154515 | 48 | 139 | 0.0 | 0.0 | 0.00 | 0.19 | 0.15 | 1 | 1010.4 |
| 20260506153011 | 48 | 139 | 0.0 | 1.0 | 0.02 | 0.19 | 0.15 | 1 | 1010.6 |
| 20260506151507 | 47 | 140 | 0.0 | 0.0 | 0.05 | 0.19 | 0.15 | 1 | 1010.7 |
| 20260506150002 | 47 | 129 | 0.0 | 3.0 | 0.07 | 0.19 | 0.15 | 1 | 1010.8 |
| 20260506144607 | 46 | 81 | 0.0 | 0.0 | 0.08 | 0.19 | 0.15 | 1 | 1010.9 |
| 20260506143053 | 47 | 248 | 0.0 | 5.0 | 0.10 | 0.17 | 0.13 | 1 | 1011.1 |
| 20260506141547 | 47 | 298 | 0.0 | 2.0 | 0.08 | 0.14 | 0.10 | 1 | 1010.9 |
| 20260506140044 | 48 | 304 | 0.0 | 0.0 | 0.06 | 0.12 | 0.08 | 1 | 1010.8 |
| 20260506134538 | 49 | 5 | 0.0 | 4.0 | 0.05 | 0.12 | 0.07 | 1 | 1010.4 |
| 20260506133041 | 53 | 330 | 0.0 | 7.0 | 0.01 | 0.08 | 0.03 | 1 | 1009.5 |
| 20260506131532 | 53 | 267 | 0.0 | 0.0 | 0.00 | 0.07 | 0.02 | 1 | 1009.2 |
| 20260506130025 | 53 | 277 | 0.0 | 0.0 | 0.01 | 0.07 | 0.02 | 1 | 1009.3 |
| 20260506124522 | 53 | 308 | 0.0 | 0.0 | 0.01 | 0.08 | 0.02 | 1 | 1009.6 |
| 20260506123017 | 53 | 314 | 0.0 | 2.0 | 0.01 | 0.08 | 0.02 | 16 | 1009.4 |
| 20260506121512 | 54 | 329 | 0.0 | 2.0 | 0.01 | 0.08 | 0.02 | 37 | 1009.2 |
| 20260506120021 | 54 | 309 | 0.0 | 0.0 | 0.00 | 0.07 | 0.02 | 39 | 1009.2 |
| 20260506114505 | 54 | 317 | 0.0 | 0.0 | 0.00 | 0.09 | 0.02 | 22 | 1009.6 |
| 20260506113101 | 53 | 298 | 0.0 | 2.0 | 0.00 | 0.09 | 0.02 | 2 | 1009.8 |
| 20260506111558 | 53 | 249 | 0.0 | 2.0 | 0.00 | 0.09 | 0.02 | 2 | 1010.0 |
| 20260506110051 | 52 | 123 | 0.0 | 0.0 | 0.00 | 0.09 | 0.02 | 2 | 1010.1 |
| 20260506104554 | 52 | 123 | 0.0 | 0.0 | 0.00 | 0.09 | 0.02 | 1 | 1010.4 |
| 20260506103043 | 51 | 123 | 0.0 | 0.0 | 0.00 | 0.09 | 0.02 | 1 | 1010.5 |
| 20260506101537 | 50 | 123 | 0.0 | 0.0 | 0.00 | 0.09 | 0.02 | 1 | 1010.7 |
| 20260506100033 | 50 | 123 | 0.0 | 0.0 | 0.00 | 0.09 | 0.02 | 1 | 1010.9 |
| 20260506094529 | 49 | 123 | 0.0 | 0.0 | 0.01 | 0.09 | 0.02 | 1 | 1010.9 |
| 20260506093033 | 49 | 123 | 0.0 | 0.0 | 0.01 | 0.09 | 0.02 | 1 | 1011.1 |
| 20260506091524 | 48 | 123 | 0.0 | 0.0 | 0.01 | 0.09 | 0.02 | 1 | 1011.4 |
| 20260506090022 | 49 | 123 | 0.0 | 0.0 | 0.01 | 0.09 | 0.02 | 1 | 1011.3 |
| 20260506084530 | 48 | 123 | 0.0 | 0.0 | 0.00 | 0.08 | 0.01 | 1 | 1011.3 |
| 20260506083006 | 48 | 124 | 0.0 | 0.0 | 0.01 | 0.08 | 0.01 | 1 | 1011.2 |
| 20260506081502 | 48 | 123 | 0.0 | 0.0 | 0.01 | 0.08 | 0.01 | 1 | 1011.1 |
| 20260506080108 | 48 | 333 | 0.0 | 4.0 | 0.01 | 0.08 | 0.01 | 1 | 1011.2 |
| 20260506073103 | 49 | 338 | 0.0 | 0.0 | 0.00 | 0.07 | 0.00 | 1 | 1011.1 |
| 20260506071545 | 48 | 315 | 0.0 | 0.0 | 0.00 | 0.07 | 0.00 | 1 | 1011.1 |
| 20260506061528 | 46 | 151 | 0.0 | 1.0 | 0.00 | 0.07 | 0.00 | 1 | 1011.5 |
| 20260506044501 | 44 | 233 | 0.0 | 0.0 | 0.00 | 0.07 | 0.00 | 1 | 1011.8 |
| 20260506043102 | 44 | 257 | 0.0 | 0.0 | 0.00 | 0.07 | 0.00 | 1 | 1012.1 |
| 20260506041556 | 44 | 257 | 0.0 | 0.0 | 0.00 | 0.07 | 0.00 | 1 | 1012.0 |
| 20260506040048 | 44 | 257 | 0.0 | 0.0 | 0.00 | 0.07 | 0.00 | 1 | 1012.2 |
| 20260506034551 | 44 | 257 | 0.0 | 0.0 | 0.00 | 0.07 | 0.00 | 1 | 1012.5 |
| 20260506033039 | 44 | 282 | 0.0 | 0.0 | 0.00 | 0.07 | 0.00 | 1 | 1012.5 |
| 20260506031535 | 44 | 282 | 0.0 | 0.0 | 0.00 | 0.07 | 0.00 | 1 | 1012.4 |
| 20260506030030 | 44 | 282 | 0.0 | 0.0 | 0.00 | 0.07 | 0.00 | 1 | 1012.4 |
| 20260506024528 | 44 | 282 | 0.0 | 0.0 | 0.00 | 0.07 | 0.00 | 1 | 1012.1 |
| 20260506023022 | 45 | 281 | 0.0 | 0.0 | 0.00 | 0.07 | 0.00 | 1 | 1012.2 |
| 20260506021518 | 45 | 281 | 0.0 | 0.0 | 0.00 | 0.07 | 0.00 | 1 | 1012.6 |
| 20260506020013 | 45 | 281 | 0.0 | 0.0 | 0.00 | 0.07 | 0.00 | 1 | 1012.8 |
| 20260506014508 | 45 | 281 | 0.0 | 0.0 | 0.00 | 0.07 | 0.00 | 1 | 1013.0 |
| 20260506013004 | 45 | 281 | 0.0 | 0.0 | 0.00 | 0.07 | 0.00 | 1 | 1012.9 |
| 20260506011624 | 45 | 281 | 0.0 | 0.0 | 0.00 | 0.07 | 0.00 | 1 | 1013.1 |
| 20260506010115 | 45 | 281 | 0.0 | 0.0 | 0.00 | 0.07 | 0.00 | 1 | 1013.1 |
| 20260506004552 | 45 | 281 | 0.0 | 0.0 | 0.00 | 0.07 | 0.00 | 1 | 1013.1 |